createdAt,value
2019-06-01T00:01:34.168Z,0.00
2019-06-01T00:04:00.289Z,0.10
2019-06-01T00:06:26.229Z,0.00
2019-06-01T00:08:52.308Z,0.00
2019-06-01T00:11:18.430Z,0.10
2019-06-01T00:13:45.529Z,0.00
2019-06-01T00:16:12.163Z,0.10
2019-06-01T00:18:38.079Z,0.00
2019-06-01T00:21:04.029Z,0.20
2019-06-01T00:23:30.097Z,0.10
2019-06-01T00:25:56.107Z,0.10
2019-06-01T00:28:22.052Z,0.00
2019-06-01T00:30:48.579Z,0.00
2019-06-01T00:33:14.596Z,0.17
2019-06-01T00:35:41.334Z,0.10
2019-06-01T00:38:07.495Z,0.10
2019-06-01T00:40:33.496Z,0.10
2019-06-01T00:42:59.637Z,0.10
2019-06-01T00:45:25.726Z,0.10
2019-06-01T00:47:52.906Z,0.00
2019-06-01T00:50:19.197Z,0.10
2019-06-01T00:52:45.318Z,0.00
2019-06-01T00:55:11.424Z,0.10
2019-06-01T00:57:37.584Z,0.10
2019-06-01T01:00:05.574Z,0.10
2019-06-01T01:02:31.493Z,0.10
2019-06-01T01:05:07.302Z,0.10
2019-06-01T01:07:33.213Z,0.10
2019-06-01T01:09:59.209Z,0.10
2019-06-01T01:12:25.468Z,0.00
2019-06-01T01:14:51.391Z,0.00
2019-06-01T01:17:17.320Z,0.10
2019-06-01T01:19:43.323Z,0.10
2019-06-01T01:22:09.250Z,0.03
2019-06-01T01:24:35.235Z,0.10
2019-06-01T01:27:01.392Z,0.10
2019-06-01T01:29:27.299Z,0.10
2019-06-01T01:31:53.283Z,0.00
2019-06-01T01:34:19.528Z,0.13
2019-06-01T01:36:45.559Z,0.10
2019-06-01T01:39:11.575Z,0.20
2019-06-01T01:41:37.639Z,0.23
2019-06-01T01:44:03.757Z,0.30
2019-06-01T01:46:29.637Z,0.17
2019-06-01T01:48:56.139Z,0.20
2019-06-01T01:51:22.186Z,0.20
2019-06-01T01:53:48.104Z,0.20
2019-06-01T01:56:14.410Z,0.20
2019-06-01T01:58:40.420Z,0.13
2019-06-01T02:01:21.385Z,0.20
2019-06-01T02:03:34.343Z,0.10
2019-06-01T02:06:00.353Z,0.10
2019-06-01T02:08:26.395Z,0.20
2019-06-01T02:10:53.308Z,0.23
2019-06-01T02:13:19.313Z,0.10
2019-06-01T02:15:45.330Z,0.30
2019-06-01T02:18:11.672Z,0.20
2019-06-01T02:20:37.660Z,0.10
2019-06-01T02:23:04.294Z,0.10
2019-06-01T02:25:30.516Z,0.13
2019-06-01T02:27:57.319Z,0.20
2019-06-01T02:30:23.617Z,0.53
2019-06-01T02:32:49.924Z,0.10
2019-06-01T02:35:15.956Z,0.27
2019-06-01T02:37:41.947Z,0.10
2019-06-01T02:40:08.538Z,0.10
2019-06-01T02:42:34.480Z,0.20
2019-06-01T02:45:01.546Z,0.20
2019-06-01T02:47:27.900Z,0.20
2019-06-01T02:49:55.648Z,0.10
2019-06-01T02:52:21.711Z,0.30
2019-06-01T02:54:47.739Z,0.10
2019-06-01T02:57:13.877Z,0.10
2019-06-01T02:59:39.795Z,0.20
2019-06-01T03:02:10.628Z,0.20
2019-06-01T03:04:34.139Z,0.30
2019-06-01T03:07:03.749Z,0.13
2019-06-01T03:09:32.079Z,0.30
2019-06-01T03:12:02.433Z,0.20
2019-06-01T03:14:32.218Z,0.30
2019-06-01T03:16:59.785Z,0.13
2019-06-01T03:19:27.117Z,0.20
2019-06-01T03:21:56.833Z,0.13
2019-06-01T03:24:23.623Z,0.10
2019-06-01T03:26:52.148Z,0.10
2019-06-01T03:29:19.063Z,0.27
2019-06-01T03:31:45.428Z,0.20
2019-06-01T03:34:12.126Z,0.30
2019-06-01T03:36:39.457Z,0.20
2019-06-01T03:39:06.151Z,0.10
2019-06-01T03:41:32.168Z,0.20
2019-06-01T03:43:58.104Z,0.20
2019-06-01T03:46:24.122Z,0.20
2019-06-01T03:48:51.144Z,0.30
2019-06-01T03:51:17.230Z,0.13
2019-06-01T03:53:43.359Z,0.20
2019-06-01T03:56:09.590Z,0.23
2019-06-01T03:58:35.480Z,0.20
2019-06-01T04:01:01.463Z,0.30
2019-06-01T04:03:27.383Z,0.40
2019-06-01T04:05:53.278Z,0.10
2019-06-01T04:08:19.350Z,0.20
2019-06-01T04:10:45.317Z,0.20
2019-06-01T04:13:11.928Z,0.77
2019-06-01T04:15:38.031Z,0.20
2019-06-01T04:18:04.094Z,0.10
2019-06-01T04:20:29.973Z,0.20
2019-06-01T04:22:56.138Z,0.30
2019-06-01T04:25:22.159Z,0.20
2019-06-01T04:27:48.054Z,0.20
2019-06-01T04:30:14.349Z,0.20
2019-06-01T04:32:49.557Z,0.13
2019-06-01T04:35:09.020Z,0.30
2019-06-01T04:37:35.282Z,0.10
2019-06-01T04:40:01.369Z,0.20
2019-06-01T04:42:27.344Z,0.10
2019-06-01T04:44:53.354Z,0.20
2019-06-01T04:47:19.297Z,0.30
2019-06-01T04:49:45.305Z,0.23
2019-06-01T04:52:12.247Z,0.20
2019-06-01T04:54:39.145Z,0.10
2019-06-01T04:57:05.063Z,0.20
2019-06-01T04:59:31.227Z,0.10
2019-06-01T05:01:57.399Z,0.10
2019-06-01T05:04:23.416Z,0.10
2019-06-01T05:06:49.466Z,0.17
2019-06-01T05:09:15.827Z,0.20
2019-06-01T05:11:41.839Z,0.17
2019-06-01T05:14:07.950Z,0.20
2019-06-01T05:16:33.877Z,0.00
2019-06-01T05:18:59.894Z,0.20
2019-06-01T05:21:25.994Z,0.20
2019-06-01T05:23:51.997Z,0.10
2019-06-01T05:26:17.916Z,0.50
2019-06-01T05:28:43.926Z,0.20
2019-06-01T05:31:16.826Z,0.17
2019-06-01T05:33:37.927Z,0.10
2019-06-01T05:36:04.311Z,0.20
2019-06-01T05:38:30.259Z,0.10
2019-06-01T05:40:56.385Z,0.10
2019-06-01T05:43:22.457Z,0.20
2019-06-01T05:45:48.478Z,0.10
2019-06-01T05:48:20.807Z,0.20
2019-06-01T05:50:42.615Z,0.20
2019-06-01T05:53:08.551Z,0.20
2019-06-01T05:55:34.576Z,0.10
2019-06-01T05:58:00.560Z,0.20
2019-06-01T06:00:38.643Z,0.10
2019-06-01T06:03:04.935Z,0.20
2019-06-01T06:05:30.831Z,0.10
2019-06-01T06:07:56.782Z,0.10
2019-06-01T06:10:22.875Z,0.10
2019-06-01T06:12:48.896Z,0.10
2019-06-01T06:15:15.640Z,0.20
2019-06-01T06:17:41.776Z,0.20
2019-06-01T06:20:08.067Z,0.10
2019-06-01T06:22:34.122Z,0.10
2019-06-01T06:25:00.200Z,0.30
2019-06-01T06:27:26.110Z,0.20
2019-06-01T06:29:52.024Z,0.10
2019-06-01T06:32:19.183Z,0.23
2019-06-01T06:34:45.197Z,0.10
2019-06-01T06:37:11.133Z,0.10
2019-06-01T06:39:37.221Z,0.10
2019-06-01T06:42:03.952Z,0.20
2019-06-01T06:44:29.849Z,0.10
2019-06-01T06:46:55.948Z,0.20
2019-06-01T06:49:23.203Z,0.20
2019-06-01T06:51:49.206Z,0.10
2019-06-01T06:54:16.112Z,0.30
2019-06-01T06:56:42.237Z,0.20
2019-06-01T06:59:11.584Z,0.20
2019-06-01T07:01:36.256Z,0.10
2019-06-01T07:04:12.268Z,0.20
2019-06-01T07:06:30.427Z,0.20
2019-06-01T07:08:56.496Z,0.10
2019-06-01T07:11:23.405Z,0.30
2019-06-01T07:13:49.545Z,0.10
2019-06-01T07:16:15.666Z,0.10
2019-06-01T07:18:41.575Z,0.20
2019-06-01T07:21:07.496Z,0.20
2019-06-01T07:23:33.495Z,0.10
2019-06-01T07:25:59.449Z,0.10
2019-06-01T07:28:26.266Z,0.20
2019-06-01T07:30:52.449Z,0.10
2019-06-01T07:33:18.477Z,0.10
2019-06-01T07:35:44.604Z,0.20
2019-06-01T07:38:10.688Z,0.17
2019-06-01T07:40:36.602Z,0.10
2019-06-01T07:43:02.726Z,0.13
2019-06-01T07:45:30.110Z,0.13
2019-06-01T07:47:56.652Z,0.20
2019-06-01T07:50:22.530Z,0.17
2019-06-01T07:52:48.763Z,0.20
2019-06-01T07:55:14.789Z,0.20
2019-06-01T07:57:43.299Z,0.20
2019-06-01T08:00:09.425Z,0.30
2019-06-01T08:02:35.468Z,0.40
2019-06-01T08:05:01.873Z,0.20
2019-06-01T08:07:29.130Z,0.20
2019-06-01T08:09:55.214Z,0.20
2019-06-01T08:12:21.258Z,0.10
2019-06-01T08:14:47.311Z,0.10
2019-06-01T08:17:13.467Z,0.30
2019-06-01T08:19:39.487Z,0.33
2019-06-01T08:22:05.659Z,0.10
2019-06-01T08:24:32.449Z,0.23
2019-06-01T08:26:58.472Z,0.10
2019-06-01T08:29:24.743Z,0.10
2019-06-01T08:31:55.635Z,0.13
2019-06-01T08:34:18.720Z,0.10
2019-06-01T08:36:44.818Z,0.20
2019-06-01T08:39:10.773Z,0.10
2019-06-01T08:41:36.886Z,0.10
2019-06-01T08:44:03.854Z,0.17
2019-06-01T08:46:29.869Z,0.20
2019-06-01T08:48:55.849Z,0.10
2019-06-01T08:51:21.961Z,0.20
2019-06-01T08:53:48.158Z,0.43
2019-06-01T08:56:14.182Z,0.10
2019-06-01T08:58:40.362Z,0.10
2019-06-01T09:01:06.411Z,0.10
2019-06-01T09:03:32.316Z,0.20
2019-06-01T09:05:58.341Z,0.60
2019-06-01T09:08:25.553Z,0.20
2019-06-01T09:10:51.966Z,0.20
2019-06-01T09:13:18.054Z,0.20
2019-06-01T09:15:44.086Z,0.20
2019-06-01T09:18:09.996Z,0.30
2019-06-01T09:20:38.814Z,0.20
2019-06-01T09:23:04.120Z,0.30
2019-06-01T09:25:30.010Z,0.30
2019-06-01T09:27:56.172Z,0.30
2019-06-01T09:30:22.266Z,0.20
2019-06-01T09:32:48.179Z,0.50
2019-06-01T09:35:14.461Z,0.20
2019-06-01T09:37:40.494Z,0.30
2019-06-01T09:40:06.789Z,0.30
2019-06-01T09:42:33.382Z,0.13
2019-06-01T09:44:59.694Z,0.50
2019-06-01T09:47:26.963Z,0.10
2019-06-01T09:49:53.117Z,0.20
2019-06-01T09:52:19.083Z,0.37
2019-06-01T09:54:44.975Z,0.30
2019-06-01T09:57:11.030Z,0.20
2019-06-01T09:59:38.191Z,0.27
2019-06-01T10:02:04.400Z,0.30
2019-06-01T10:04:30.486Z,0.10
2019-06-01T10:06:56.403Z,0.23
2019-06-01T10:09:22.327Z,0.20
2019-06-01T10:11:48.295Z,0.10
2019-06-01T10:14:14.224Z,0.20
2019-06-01T10:16:40.124Z,0.20
2019-06-01T10:19:06.265Z,0.30
2019-06-01T10:21:32.393Z,0.20
2019-06-01T10:23:58.312Z,0.10
2019-06-01T10:26:24.505Z,0.20
2019-06-01T10:28:50.497Z,0.23
2019-06-01T10:31:18.296Z,0.10
2019-06-01T10:33:44.278Z,0.20
2019-06-01T10:36:20.672Z,0.10
2019-06-01T10:38:39.348Z,0.20
2019-06-01T10:41:05.590Z,0.10
2019-06-01T10:43:31.651Z,0.10
2019-06-01T10:45:57.551Z,0.10
2019-06-01T10:48:23.775Z,0.20
2019-06-01T10:50:49.704Z,0.20
2019-06-01T10:53:15.605Z,0.10
2019-06-01T10:55:42.484Z,0.20
2019-06-01T10:58:08.552Z,0.10
2019-06-01T11:00:42.046Z,0.20
2019-06-01T11:03:02.954Z,0.10
2019-06-01T11:05:29.131Z,0.10
2019-06-01T11:07:55.155Z,0.20
2019-06-01T11:10:21.413Z,0.13
2019-06-01T11:12:47.463Z,0.10
2019-06-01T11:15:13.939Z,0.10
2019-06-01T11:17:41.223Z,0.00
2019-06-01T11:20:07.734Z,0.10
2019-06-01T11:22:33.652Z,0.10
2019-06-01T11:24:59.834Z,0.03
2019-06-01T11:27:25.852Z,0.10
2019-06-01T11:29:51.890Z,0.10
2019-06-01T11:32:17.978Z,0.10
2019-06-01T11:34:44.510Z,0.13
2019-06-01T11:37:15.030Z,0.10
2019-06-01T11:39:38.629Z,0.10
2019-06-01T11:42:04.654Z,0.10
2019-06-01T11:44:30.543Z,0.20
2019-06-01T11:46:56.693Z,0.03
2019-06-01T11:49:22.670Z,0.10
2019-06-01T11:51:48.567Z,0.10
2019-06-01T11:54:14.733Z,0.10
2019-06-01T11:56:41.344Z,0.00
2019-06-01T11:59:07.526Z,0.10
2019-06-01T12:01:33.646Z,0.10
2019-06-01T12:03:59.609Z,0.17
2019-06-01T12:06:25.504Z,0.10
2019-06-01T12:08:51.544Z,0.00
2019-06-01T12:11:17.444Z,0.10
2019-06-01T12:13:44.443Z,0.10
2019-06-01T12:16:10.904Z,0.00
2019-06-01T12:18:36.983Z,0.10
2019-06-01T12:21:03.101Z,0.00
2019-06-01T12:23:29.087Z,0.03
2019-06-01T12:25:55.028Z,0.00
2019-06-01T12:28:21.019Z,0.10
2019-06-01T12:30:47.999Z,0.10
2019-06-01T12:33:14.060Z,0.00
2019-06-01T12:35:39.945Z,0.00
2019-06-01T12:38:07.139Z,0.00
2019-06-01T12:40:33.335Z,0.10
2019-06-01T12:42:59.219Z,0.10
2019-06-01T12:45:25.238Z,0.00
2019-06-01T12:47:55.460Z,0.10
2019-06-01T12:50:19.267Z,0.00
2019-06-01T12:52:46.364Z,0.10
2019-06-01T12:55:12.700Z,0.07
2019-06-01T12:57:38.805Z,0.10
2019-06-01T13:00:05.798Z,0.00
2019-06-01T13:02:31.841Z,0.00
2019-06-01T13:04:57.751Z,0.13
2019-06-01T13:07:23.831Z,0.00
2019-06-01T13:09:50.611Z,0.10
2019-06-01T13:12:16.556Z,0.00
2019-06-01T13:14:43.199Z,0.00
2019-06-01T13:17:09.369Z,0.00
2019-06-01T13:19:35.390Z,0.00
2019-06-01T13:22:01.389Z,0.00
2019-06-01T13:24:27.311Z,0.10
2019-06-01T13:26:53.217Z,0.00
2019-06-01T13:29:19.283Z,0.10
2019-06-01T13:31:46.146Z,0.00
2019-06-01T13:34:12.059Z,0.00
2019-06-01T13:36:38.219Z,0.00
2019-06-01T13:39:06.273Z,0.07
2019-06-01T13:41:32.394Z,0.03
2019-06-01T13:43:58.402Z,0.00
2019-06-01T13:46:24.577Z,0.10
2019-06-01T13:48:52.619Z,0.10
2019-06-01T13:51:18.668Z,0.00
2019-06-01T13:53:44.729Z,0.03
2019-06-01T13:56:10.835Z,0.10
2019-06-01T13:58:37.034Z,0.00
2019-06-01T14:01:03.269Z,0.00
2019-06-01T14:03:29.192Z,0.00
2019-06-01T14:05:55.285Z,0.00
2019-06-01T14:08:29.044Z,0.00
2019-06-01T14:10:49.460Z,0.10
2019-06-01T14:13:15.537Z,0.00
2019-06-01T14:15:41.584Z,0.13
2019-06-01T14:18:07.601Z,0.00
2019-06-01T14:20:33.783Z,0.10
2019-06-01T14:22:59.826Z,0.00
2019-06-01T14:25:25.831Z,0.00
2019-06-01T14:27:52.193Z,0.00
2019-06-01T14:30:18.515Z,0.00
2019-06-01T14:32:44.458Z,0.00
2019-06-01T14:35:10.834Z,0.00
2019-06-01T14:37:36.786Z,0.00
2019-06-01T14:40:06.176Z,0.10
2019-06-01T14:42:32.263Z,0.00
2019-06-01T14:44:58.251Z,0.07
2019-06-01T14:47:24.203Z,0.00
2019-06-01T14:49:51.623Z,0.00
2019-06-01T14:52:17.752Z,0.10
2019-06-01T14:54:43.698Z,0.00
2019-06-01T14:57:09.890Z,0.00
2019-06-01T14:59:35.866Z,0.10
2019-06-01T15:02:01.789Z,0.00
2019-06-01T15:04:28.083Z,0.00
2019-06-01T15:06:54.408Z,0.00
2019-06-01T15:09:20.502Z,0.00
2019-06-01T15:11:46.768Z,0.00
2019-06-01T15:14:12.782Z,0.03
2019-06-01T15:16:38.738Z,0.00
2019-06-01T15:19:04.828Z,0.00
2019-06-01T15:21:30.831Z,0.10
2019-06-01T15:23:58.057Z,0.10
2019-06-01T15:26:24.779Z,0.10
2019-06-01T15:28:50.952Z,0.13
2019-06-01T15:31:16.918Z,0.30
2019-06-01T15:33:42.920Z,0.17
2019-06-01T15:36:08.857Z,0.30
2019-06-01T15:38:34.862Z,0.07
2019-06-01T15:41:02.307Z,0.10
2019-06-01T15:43:28.362Z,0.07
2019-06-01T15:45:55.344Z,0.00
2019-06-01T15:48:21.382Z,0.00
2019-06-01T15:50:47.403Z,0.17
2019-06-01T15:53:13.308Z,0.10
2019-06-01T15:55:39.287Z,0.10
2019-06-01T15:58:05.431Z,0.07
2019-06-01T16:00:31.441Z,0.00
2019-06-01T16:02:57.515Z,0.00
2019-06-01T16:05:23.531Z,0.10
2019-06-01T16:07:49.458Z,0.10
2019-06-01T16:10:15.722Z,0.00
2019-06-01T16:12:41.808Z,0.20
2019-06-01T16:15:09.324Z,0.10
2019-06-01T16:17:35.429Z,0.13
2019-06-01T16:20:02.314Z,0.20
2019-06-01T16:22:28.351Z,0.10
2019-06-01T16:24:54.494Z,0.10
2019-06-01T16:27:20.496Z,0.10
2019-06-01T16:29:46.491Z,0.10
2019-06-01T16:32:12.667Z,0.10
2019-06-01T16:34:38.678Z,0.10
2019-06-01T16:37:05.326Z,0.10
2019-06-01T16:39:31.639Z,0.10
2019-06-01T16:41:59.706Z,0.10
2019-06-01T16:44:25.754Z,0.00
2019-06-01T16:46:51.875Z,0.00
2019-06-01T16:49:17.886Z,0.10
2019-06-01T16:51:58.730Z,0.00
2019-06-01T16:54:25.276Z,0.10
2019-06-01T16:56:51.378Z,0.10
2019-06-01T16:59:17.778Z,0.00
2019-06-01T17:01:43.711Z,0.20
2019-06-01T17:04:09.703Z,0.10
2019-06-01T17:06:37.426Z,0.10
2019-06-01T17:09:07.023Z,0.20
2019-06-01T17:11:33.055Z,0.20
2019-06-01T17:13:59.242Z,0.20
2019-06-01T17:16:25.259Z,0.20
2019-06-01T17:18:51.273Z,0.10
2019-06-01T17:21:17.352Z,0.20
2019-06-01T17:23:43.358Z,0.17
2019-06-01T17:26:09.379Z,0.10
2019-06-01T17:28:35.529Z,0.10
2019-06-01T17:31:02.284Z,0.10
2019-06-01T17:33:28.631Z,0.10
2019-06-01T17:35:54.708Z,0.10
2019-06-01T17:38:20.697Z,0.00
2019-06-01T17:40:46.612Z,0.10
2019-06-01T17:43:13.489Z,0.10
2019-06-01T17:45:39.471Z,0.20
2019-06-01T17:48:18.077Z,0.00
2019-06-01T17:50:34.015Z,0.10
2019-06-01T17:53:00.588Z,0.00
2019-06-01T17:55:32.624Z,0.10
2019-06-01T17:57:59.085Z,0.00
2019-06-01T18:00:25.211Z,0.00
2019-06-01T18:02:51.237Z,0.30
2019-06-01T18:05:17.454Z,0.10
2019-06-01T18:07:43.453Z,0.20
2019-06-01T18:10:10.171Z,0.10
2019-06-01T18:12:36.351Z,0.10
2019-06-01T18:15:06.076Z,0.20
2019-06-01T18:17:32.284Z,0.20
2019-06-01T18:19:58.375Z,0.10
2019-06-01T18:22:24.397Z,0.10
2019-06-01T18:24:50.401Z,0.50
2019-06-01T18:27:16.605Z,0.20
2019-06-01T18:29:48.293Z,0.20
2019-06-01T18:32:11.595Z,0.10
2019-06-01T18:34:37.962Z,0.10
2019-06-01T18:37:05.837Z,0.10
2019-06-01T18:39:32.251Z,0.20
2019-06-01T18:41:58.352Z,0.10
2019-06-01T18:44:24.483Z,0.10
2019-06-01T18:46:50.420Z,0.30
2019-06-01T18:49:18.230Z,0.10
2019-06-01T18:51:44.504Z,0.20
2019-06-01T18:54:10.828Z,0.30
2019-06-01T18:56:36.995Z,0.10
2019-06-01T18:59:05.015Z,0.13
2019-06-01T19:01:31.007Z,0.20
2019-06-01T19:03:57.100Z,0.20
2019-06-01T19:06:23.233Z,0.20
2019-06-01T19:08:49.346Z,0.33
2019-06-01T19:11:30.701Z,0.20
2019-06-01T19:13:43.284Z,0.20
2019-06-01T19:16:10.083Z,0.30
2019-06-01T19:18:36.220Z,0.20
2019-06-01T19:21:02.230Z,0.20
2019-06-01T19:23:28.136Z,0.20
2019-06-01T19:25:54.206Z,0.20
2019-06-01T19:28:20.115Z,0.20
2019-06-01T19:30:46.251Z,0.30
2019-06-01T19:33:15.344Z,0.30
2019-06-01T19:35:40.343Z,0.13
2019-06-01T19:38:07.000Z,0.33
2019-06-01T19:40:35.062Z,0.30
2019-06-01T19:43:01.467Z,0.30
2019-06-01T19:45:29.536Z,0.20
2019-06-01T19:47:55.331Z,0.20
2019-06-01T19:50:21.242Z,0.23
2019-06-01T19:52:47.183Z,0.20
2019-06-01T19:55:13.438Z,0.30
2019-06-01T19:57:39.349Z,0.40
2019-06-01T20:00:05.877Z,0.20
2019-06-01T20:02:34.063Z,0.10
2019-06-01T20:04:59.683Z,0.50
2019-06-01T20:07:25.638Z,0.30
2019-06-01T20:09:51.762Z,0.27
2019-06-01T20:12:20.165Z,0.30
2019-06-01T20:14:45.485Z,0.27
2019-06-01T20:17:11.699Z,0.30
2019-06-01T20:19:37.672Z,0.53
2019-06-01T20:22:03.829Z,0.20
2019-06-01T20:24:29.964Z,0.30
2019-06-01T20:26:55.854Z,0.33
2019-06-01T20:29:21.871Z,0.30
2019-06-01T20:31:47.946Z,0.50
2019-06-01T20:34:14.340Z,0.20
2019-06-01T20:36:40.369Z,0.30
2019-06-01T20:39:07.074Z,0.40
2019-06-01T20:41:33.058Z,0.40
2019-06-01T20:43:58.985Z,0.20
2019-06-01T20:46:25.324Z,0.30
2019-06-01T20:48:51.336Z,0.30
2019-06-01T20:51:17.381Z,0.37
2019-06-01T20:53:43.773Z,0.10
2019-06-01T20:56:09.765Z,0.23
2019-06-01T20:58:35.818Z,0.30
2019-06-01T21:01:01.811Z,0.30
2019-06-01T21:03:27.900Z,0.37
2019-06-01T21:05:53.865Z,0.30
2019-06-01T21:08:20.366Z,0.30
2019-06-01T21:10:46.348Z,0.20
2019-06-01T21:13:12.374Z,0.20
2019-06-01T21:15:38.570Z,0.40
2019-06-01T21:18:04.688Z,0.30
2019-06-01T21:20:30.810Z,0.23
2019-06-01T21:22:56.831Z,0.43
2019-06-01T21:25:22.973Z,0.40
2019-06-01T21:27:49.117Z,0.40
2019-06-01T21:30:16.984Z,0.30
2019-06-01T21:32:43.359Z,0.43
2019-06-01T21:35:10.376Z,0.30
2019-06-01T21:37:36.363Z,0.70
2019-06-01T21:40:07.053Z,0.27
2019-06-01T21:42:33.055Z,0.50
2019-06-01T21:44:59.060Z,0.40
2019-06-01T21:47:25.846Z,0.40
2019-06-01T21:49:51.900Z,0.30
2019-06-01T21:52:18.084Z,0.30
2019-06-01T21:54:44.032Z,0.50
2019-06-01T21:57:10.035Z,0.33
2019-06-01T21:59:36.096Z,0.30
2019-06-01T22:02:02.187Z,0.40
2019-06-01T22:04:28.101Z,0.30
2019-06-01T22:06:54.393Z,0.30
2019-06-01T22:09:21.251Z,0.30
2019-06-01T22:11:47.216Z,0.40
2019-06-01T22:14:13.401Z,0.50
2019-06-01T22:16:39.298Z,0.40
2019-06-01T22:19:05.226Z,0.30
2019-06-01T22:21:31.423Z,0.40
2019-06-01T22:23:57.324Z,0.30
2019-06-01T22:26:24.022Z,0.30
2019-06-01T22:28:50.255Z,0.40
2019-06-01T22:31:16.157Z,0.30
2019-06-01T22:33:42.092Z,0.40
2019-06-01T22:36:08.269Z,0.30
2019-06-01T22:38:34.174Z,0.40
2019-06-01T22:41:00.181Z,0.40
2019-06-01T22:43:41.242Z,0.40
2019-06-01T22:45:54.125Z,0.40
2019-06-01T22:48:20.469Z,0.40
2019-06-01T22:50:46.583Z,0.40
2019-06-01T22:53:12.568Z,0.50
2019-06-01T22:55:38.487Z,0.40
2019-06-01T22:58:04.514Z,0.30
2019-06-01T23:00:31.985Z,0.50
2019-06-01T23:02:58.058Z,0.50
2019-06-01T23:05:25.013Z,0.40
2019-06-01T23:07:51.075Z,0.30
2019-06-01T23:10:17.077Z,0.43
2019-06-01T23:12:43.061Z,0.50
2019-06-01T23:15:09.187Z,0.47
2019-06-01T23:17:35.258Z,0.60
2019-06-01T23:20:02.370Z,0.47
2019-06-01T23:22:28.387Z,0.60
2019-06-01T23:24:54.407Z,0.40
2019-06-01T23:27:21.991Z,0.60
2019-06-01T23:29:47.985Z,0.40
2019-06-01T23:32:14.023Z,0.60
2019-06-01T23:34:40.104Z,0.50
2019-06-01T23:37:05.995Z,0.50
2019-06-01T23:39:32.992Z,0.60
2019-06-01T23:41:59.228Z,0.60
2019-06-01T23:44:29.277Z,0.40
2019-06-01T23:46:53.252Z,0.70
2019-06-01T23:49:19.544Z,0.57
2019-06-01T23:51:45.453Z,0.63
2019-06-01T23:54:11.383Z,0.60
2019-06-01T23:56:37.434Z,0.50
2019-06-01T23:59:03.556Z,0.50
